Terminal Aerodrome Forecast
Issued by NWS

Home | Current Version | Previous Version | Text Only | Print | Product List | Glossary On
Versions: 1 2 3 4 5 6 7 8 9 10 11 12 13 14 15 16
609
FTUS42 KMLB 231143
TAFTIX
TAF
KTIX 231143Z 2312/2412 22004KT P6SM SCT050 BKN120
     FM231400 19006KT P6SM VCSH SCT030 BKN110
     FM231700 12008KT P6SM VCTS SCT035CB SCT080 BKN120
      TEMPO 2318/2320 3SM TSRA BKN035CB BKN080
     FM232200 VRB05KT P6SM VCSH SCT040 BKN100
     FM240200 VRB02KT P6SM FEW040 BKN200=

USA.gov is the U.S. government's official web portal to all federal, state and local government web resources and services.